createdAt,value
2018-01-23T00:00:33.858Z,0.00
2018-01-23T00:01:33.825Z,0.00
2018-01-23T00:02:33.785Z,0.00
2018-01-23T00:03:33.746Z,0.00
2018-01-23T00:04:33.708Z,0.00
2018-01-23T00:05:33.686Z,0.00
2018-01-23T00:06:33.626Z,0.00
2018-01-23T00:07:33.599Z,0.00
2018-01-23T00:08:33.571Z,0.00
2018-01-23T00:09:33.514Z,0.00
2018-01-23T00:10:33.470Z,0.00
2018-01-23T00:11:33.432Z,0.00
2018-01-23T00:12:33.395Z,0.00
2018-01-23T00:13:33.358Z,0.00
2018-01-23T00:14:33.320Z,0.00
2018-01-23T00:15:33.281Z,0.00
2018-01-23T00:16:33.236Z,0.00
2018-01-23T00:17:33.201Z,0.00
2018-01-23T00:18:33.163Z,0.00
2018-01-23T00:19:33.122Z,0.00
2018-01-23T00:20:33.084Z,0.00
2018-01-23T00:21:33.055Z,0.00
2018-01-23T00:22:33.056Z,0.00
2018-01-23T00:23:32.997Z,0.00
2018-01-23T00:24:32.930Z,0.00
2018-01-23T00:25:32.888Z,0.00
2018-01-23T00:26:32.851Z,0.00
2018-01-23T00:27:32.810Z,0.00
2018-01-23T00:28:32.814Z,0.00
2018-01-23T00:29:32.732Z,0.00
2018-01-23T00:30:32.722Z,0.00
2018-01-23T00:31:32.661Z,0.00
2018-01-23T00:32:32.617Z,0.00
2018-01-23T00:33:32.577Z,0.00
2018-01-23T00:34:32.560Z,0.00
2018-01-23T00:35:32.514Z,0.00
2018-01-23T00:36:32.479Z,0.00
2018-01-23T00:37:32.421Z,0.00
2018-01-23T00:38:32.381Z,0.00
2018-01-23T00:39:32.339Z,0.00
2018-01-23T00:40:32.300Z,0.00
2018-01-23T00:41:32.267Z,0.00
2018-01-23T00:42:32.274Z,0.00
2018-01-23T00:43:32.193Z,0.00
2018-01-23T00:44:32.142Z,0.00
2018-01-23T00:45:32.147Z,0.00
2018-01-23T00:46:32.093Z,0.00
2018-01-23T00:47:32.047Z,0.00
2018-01-23T00:48:31.985Z,0.00
2018-01-23T00:49:31.952Z,0.00
2018-01-23T00:50:31.916Z,0.00
2018-01-23T00:51:31.906Z,0.00
2018-01-23T00:52:31.834Z,0.00
2018-01-23T00:53:31.794Z,0.00
2018-01-23T00:54:31.748Z,0.00
2018-01-23T00:55:31.716Z,0.00
2018-01-23T00:56:31.677Z,0.00
2018-01-23T00:57:31.637Z,0.00
2018-01-23T00:58:31.594Z,0.00
2018-01-23T00:59:31.556Z,0.00
2018-01-23T01:00:31.523Z,0.00
2018-01-23T01:01:31.500Z,0.00
2018-01-23T01:02:31.463Z,0.00
2018-01-23T01:03:31.410Z,0.00
2018-01-23T01:04:31.361Z,0.00
2018-01-23T01:05:31.322Z,0.00
2018-01-23T01:06:31.303Z,0.00
2018-01-23T01:07:31.241Z,0.00
2018-01-23T01:08:31.215Z,0.00
2018-01-23T01:09:31.165Z,0.00
2018-01-23T01:10:31.127Z,0.00
2018-01-23T01:11:31.086Z,0.00
2018-01-23T01:12:31.049Z,0.00
2018-01-23T01:13:31.007Z,0.00
2018-01-23T01:14:30.967Z,0.00
2018-01-23T01:15:30.927Z,0.00
2018-01-23T01:16:30.886Z,0.00
2018-01-23T01:17:30.860Z,0.00
2018-01-23T01:18:30.832Z,0.00
2018-01-23T01:19:30.772Z,0.00
2018-01-23T01:20:30.733Z,0.00
2018-01-23T01:21:30.728Z,0.00
2018-01-23T01:22:30.654Z,0.00
2018-01-23T01:23:30.615Z,0.00
2018-01-23T01:24:30.583Z,0.00
2018-01-23T01:25:30.567Z,0.00
2018-01-23T01:26:30.503Z,0.00
2018-01-23T01:27:30.468Z,0.00
2018-01-23T01:28:30.429Z,0.00
2018-01-23T01:29:30.376Z,0.00
2018-01-23T01:30:30.349Z,0.00
2018-01-23T01:31:30.299Z,0.00
2018-01-23T01:32:30.264Z,0.00
2018-01-23T01:33:30.220Z,0.00
2018-01-23T01:34:30.181Z,0.00
2018-01-23T01:35:30.144Z,0.00
2018-01-23T01:36:30.102Z,0.00
2018-01-23T01:37:30.065Z,0.00
2018-01-23T01:38:30.032Z,0.00
2018-01-23T01:39:29.985Z,0.00
2018-01-23T01:40:29.953Z,0.00
2018-01-23T01:41:29.921Z,0.00
2018-01-23T01:42:29.868Z,0.00
2018-01-23T01:43:29.856Z,0.00
2018-01-23T01:44:29.805Z,0.00
2018-01-23T01:45:29.748Z,0.00
2018-01-23T01:46:29.729Z,0.00
2018-01-23T01:47:29.669Z,0.00
2018-01-23T01:48:29.632Z,0.00
2018-01-23T01:49:29.616Z,0.00
2018-01-23T01:50:29.581Z,0.00
2018-01-23T01:51:29.513Z,0.00
2018-01-23T01:52:29.486Z,0.00
2018-01-23T01:53:29.432Z,0.00
2018-01-23T01:54:29.419Z,0.00
2018-01-23T01:55:29.355Z,0.00
2018-01-23T01:56:29.317Z,0.00
2018-01-23T01:57:29.282Z,0.00
2018-01-23T01:58:29.248Z,0.00
2018-01-23T01:59:29.215Z,0.00
2018-01-23T02:00:29.188Z,0.00
2018-01-23T02:01:29.151Z,0.00
2018-01-23T02:02:29.092Z,0.00
2018-01-23T02:03:29.044Z,0.00
2018-01-23T02:04:29.006Z,0.00
2018-01-23T02:05:28.977Z,0.00
2018-01-23T02:06:28.928Z,0.00
2018-01-23T02:07:28.909Z,0.00
2018-01-23T02:08:28.871Z,0.00
2018-01-23T02:09:28.808Z,0.00
2018-01-23T02:10:28.789Z,0.00
2018-01-23T02:11:28.757Z,0.00
2018-01-23T02:12:28.689Z,0.00
2018-01-23T02:13:28.686Z,0.00
2018-01-23T02:14:28.643Z,0.00
2018-01-23T02:15:28.575Z,0.00
2018-01-23T02:16:28.532Z,0.00
2018-01-23T02:17:28.499Z,0.00
2018-01-23T02:18:28.507Z,0.00
2018-01-23T02:19:28.463Z,0.00
2018-01-23T02:20:28.380Z,0.00
2018-01-23T02:21:28.335Z,0.00
2018-01-23T02:22:28.340Z,0.00
2018-01-23T02:23:28.274Z,0.00
2018-01-23T02:24:28.224Z,0.00
2018-01-23T02:25:28.184Z,0.00
2018-01-23T02:26:28.141Z,0.00
2018-01-23T02:27:28.104Z,0.00
2018-01-23T02:28:28.114Z,0.00
2018-01-23T02:29:28.053Z,0.00
2018-01-23T02:30:28.002Z,0.00
2018-01-23T02:31:27.945Z,0.00
2018-01-23T02:32:27.907Z,0.00
2018-01-23T02:33:27.868Z,0.00
2018-01-23T02:34:27.825Z,0.00
2018-01-23T02:35:27.786Z,0.00
2018-01-23T02:36:27.778Z,0.00
2018-01-23T02:37:27.737Z,0.00
2018-01-23T02:38:27.699Z,0.00
2018-01-23T02:39:27.648Z,0.00
2018-01-23T02:40:27.627Z,0.00
2018-01-23T02:41:27.595Z,0.00
2018-01-23T02:42:27.513Z,0.00
2018-01-23T02:43:27.473Z,0.00
2018-01-23T02:44:27.456Z,0.00
2018-01-23T02:45:27.410Z,0.00
2018-01-23T02:46:27.361Z,0.00
2018-01-23T02:47:27.326Z,0.00
2018-01-23T02:48:27.342Z,0.00
2018-01-23T02:49:27.263Z,0.00
2018-01-23T02:50:27.207Z,0.00
2018-01-23T02:51:27.183Z,0.00
2018-01-23T02:52:27.157Z,0.00
2018-01-23T02:53:27.090Z,0.00
2018-01-23T02:54:27.041Z,0.00
2018-01-23T02:55:27.002Z,0.00
2018-01-23T02:56:26.966Z,0.00
2018-01-23T02:57:26.924Z,0.00
2018-01-23T02:58:26.929Z,0.00
2018-01-23T02:59:26.848Z,0.00
2018-01-23T03:00:26.806Z,0.00
2018-01-23T03:01:26.767Z,0.00
2018-01-23T03:02:26.723Z,0.00
2018-01-23T03:03:26.718Z,0.00
2018-01-23T03:04:26.651Z,0.00
2018-01-23T03:05:26.610Z,0.00
2018-01-23T03:06:26.576Z,0.00
2018-01-23T03:07:26.545Z,0.00
2018-01-23T03:08:26.497Z,0.00
2018-01-23T03:09:26.488Z,0.00
2018-01-23T03:10:26.410Z,0.00
2018-01-23T03:11:26.372Z,0.00
2018-01-23T03:12:26.349Z,0.00
2018-01-23T03:13:26.299Z,0.00
2018-01-23T03:14:26.304Z,0.00
2018-01-23T03:15:26.223Z,0.00
2018-01-23T03:16:26.181Z,0.00
2018-01-23T03:17:26.147Z,0.00
2018-01-23T03:18:26.113Z,0.00
2018-01-23T03:19:26.060Z,0.00
2018-01-23T03:20:26.025Z,0.00
2018-01-23T03:21:25.987Z,0.00
2018-01-23T03:22:25.977Z,0.00
2018-01-23T03:23:25.912Z,0.00
2018-01-23T03:24:25.866Z,0.00
2018-01-23T03:25:25.831Z,0.00
2018-01-23T03:26:25.787Z,0.00
2018-01-23T03:27:25.767Z,0.00
2018-01-23T03:28:25.737Z,0.00
2018-01-23T03:29:25.693Z,0.00
2018-01-23T03:30:25.659Z,0.00
2018-01-23T03:31:25.605Z,0.00
2018-01-23T03:32:25.554Z,0.00
2018-01-23T03:33:25.529Z,0.00
2018-01-23T03:34:25.470Z,0.00
2018-01-23T03:35:25.463Z,0.00
2018-01-23T03:36:25.400Z,0.00
2018-01-23T03:37:25.360Z,0.00
2018-01-23T03:38:25.336Z,0.00
2018-01-23T03:39:25.285Z,0.00
2018-01-23T03:40:25.244Z,0.00
2018-01-23T03:41:25.201Z,0.00
2018-01-23T03:42:25.167Z,0.00
2018-01-23T03:43:25.124Z,0.00
2018-01-23T03:44:25.128Z,0.00
2018-01-23T03:45:25.092Z,0.00
2018-01-23T03:46:25.025Z,0.00
2018-01-23T03:47:25.009Z,0.00
2018-01-23T03:48:24.957Z,0.00
2018-01-23T03:49:25.434Z,0.00
2018-01-23T03:50:25.433Z,0.00
2018-01-23T03:51:25.432Z,0.00
2018-01-23T03:52:24.966Z,0.00
2018-01-23T03:53:24.740Z,0.00
2018-01-23T03:54:24.699Z,0.00
2018-01-23T03:55:24.655Z,0.00
2018-01-23T03:56:24.618Z,0.00
2018-01-23T03:57:24.596Z,0.00
2018-01-23T03:58:24.542Z,0.00
2018-01-23T03:59:24.513Z,0.00
2018-01-23T04:00:24.471Z,0.00
2018-01-23T04:01:24.458Z,0.00
2018-01-23T04:02:24.401Z,0.00
2018-01-23T04:03:24.343Z,0.00
2018-01-23T04:04:24.338Z,0.00
2018-01-23T04:05:24.280Z,0.00
2018-01-23T04:06:24.232Z,0.00
2018-01-23T04:07:24.232Z,0.00
2018-01-23T04:08:24.197Z,0.00
2018-01-23T04:09:24.117Z,0.00
2018-01-23T04:10:24.074Z,0.00
2018-01-23T04:11:24.041Z,0.00
2018-01-23T04:12:24.003Z,0.00
2018-01-23T04:13:23.958Z,0.00
2018-01-23T04:14:23.960Z,0.00
2018-01-23T04:15:23.879Z,0.00
2018-01-23T04:16:23.841Z,0.00
2018-01-23T04:17:23.800Z,0.00
2018-01-23T04:18:23.787Z,0.00
2018-01-23T04:19:23.745Z,0.00
2018-01-23T04:20:23.681Z,0.00
2018-01-23T04:21:23.649Z,0.00
2018-01-23T04:22:23.607Z,0.00
2018-01-23T04:23:23.577Z,0.00
2018-01-23T04:24:23.557Z,0.00
2018-01-23T04:25:23.492Z,0.00
2018-01-23T04:26:23.495Z,0.00
2018-01-23T04:27:23.439Z,0.00
2018-01-23T04:28:23.388Z,0.00
2018-01-23T04:29:23.377Z,0.00
2018-01-23T04:30:23.297Z,0.00
2018-01-23T04:31:23.280Z,0.00
2018-01-23T04:32:23.218Z,0.00
2018-01-23T04:33:23.209Z,0.00
2018-01-23T04:34:23.159Z,0.00
2018-01-23T04:35:23.134Z,0.00
2018-01-23T04:36:23.130Z,0.00
2018-01-23T04:37:23.020Z,0.00
2018-01-23T04:38:23.004Z,0.00
2018-01-23T04:39:22.959Z,0.00
2018-01-23T04:40:22.904Z,0.00
2018-01-23T04:41:22.885Z,0.00
2018-01-23T04:42:22.830Z,0.00
2018-01-23T04:43:22.787Z,0.00
2018-01-23T04:44:22.762Z,0.00
2018-01-23T04:45:22.727Z,0.00
2018-01-23T04:46:22.670Z,0.00
2018-01-23T04:47:22.671Z,0.00
2018-01-23T04:48:22.607Z,0.00
2018-01-23T04:49:22.586Z,0.00
2018-01-23T04:50:22.523Z,0.00
2018-01-23T04:51:22.498Z,0.00
2018-01-23T04:52:22.436Z,0.00
2018-01-23T04:53:22.396Z,0.00
2018-01-23T04:54:22.357Z,0.00
2018-01-23T04:55:22.316Z,0.00
2018-01-23T04:56:22.291Z,0.00
2018-01-23T04:57:22.245Z,0.00
2018-01-23T04:58:22.230Z,0.00
2018-01-23T04:59:22.162Z,0.00
2018-01-23T05:00:22.141Z,0.00
2018-01-23T05:01:22.087Z,0.00
2018-01-23T05:02:22.050Z,0.00
2018-01-23T05:03:22.020Z,0.00
2018-01-23T05:04:21.970Z,0.00
2018-01-23T05:05:21.930Z,0.00
2018-01-23T05:06:21.898Z,0.00
2018-01-23T05:07:21.855Z,0.00
2018-01-23T05:08:21.815Z,0.00
2018-01-23T05:09:21.813Z,0.00
2018-01-23T05:10:21.738Z,0.00
2018-01-23T05:11:21.701Z,0.00
2018-01-23T05:12:21.661Z,0.00
2018-01-23T05:13:21.621Z,0.00
2018-01-23T05:14:21.584Z,0.00
2018-01-23T05:15:21.567Z,0.00
2018-01-23T05:16:21.505Z,0.00
2018-01-23T05:17:21.517Z,0.00
2018-01-23T05:18:21.451Z,0.00
2018-01-23T05:19:21.400Z,0.00
2018-01-23T05:20:21.358Z,0.00
2018-01-23T05:21:21.310Z,0.00
2018-01-23T05:22:21.272Z,0.00
2018-01-23T05:23:21.256Z,0.00
2018-01-23T05:24:21.194Z,0.00
2018-01-23T05:25:21.169Z,0.00
2018-01-23T05:26:21.113Z,0.00
2018-01-23T05:27:21.079Z,0.00
2018-01-23T05:28:21.037Z,0.00
2018-01-23T05:29:20.995Z,0.00
2018-01-23T05:30:20.963Z,0.00
2018-01-23T05:31:20.919Z,0.00
2018-01-23T05:32:20.881Z,0.00
2018-01-23T05:33:20.843Z,0.00
2018-01-23T05:34:20.813Z,0.00
2018-01-23T05:35:20.782Z,0.00
2018-01-23T05:36:20.742Z,0.00
2018-01-23T05:37:20.715Z,0.00
2018-01-23T05:38:20.662Z,0.00
2018-01-23T05:39:20.611Z,0.00
2018-01-23T05:40:20.568Z,0.00
2018-01-23T05:41:20.558Z,0.00
2018-01-23T05:42:20.518Z,0.00
2018-01-23T05:43:20.457Z,0.00
2018-01-23T05:44:20.443Z,0.00
2018-01-23T05:45:20.382Z,0.00
2018-01-23T05:46:20.368Z,0.00
2018-01-23T05:47:20.316Z,0.00
2018-01-23T05:48:20.266Z,0.00
2018-01-23T05:49:20.227Z,0.00
2018-01-23T05:50:20.193Z,0.00
2018-01-23T05:51:20.184Z,0.00
2018-01-23T05:52:20.110Z,0.00
2018-01-23T05:53:20.081Z,0.00
2018-01-23T05:54:20.039Z,0.00
2018-01-23T05:55:20.004Z,0.00
2018-01-23T05:56:19.972Z,0.00
2018-01-23T05:57:19.920Z,0.00
2018-01-23T05:58:19.876Z,0.00
2018-01-23T05:59:19.848Z,0.00
2018-01-23T06:00:19.817Z,0.00
2018-01-23T06:01:19.770Z,0.00
2018-01-23T06:02:19.737Z,0.00
2018-01-23T06:03:19.686Z,0.00
2018-01-23T06:04:19.647Z,0.00
2018-01-23T06:05:19.614Z,0.00
2018-01-23T06:06:19.570Z,0.00
2018-01-23T06:07:19.532Z,0.00
2018-01-23T06:08:19.501Z,0.00
2018-01-23T06:09:19.455Z,0.00
2018-01-23T06:10:19.411Z,0.00
2018-01-23T06:11:19.376Z,0.00
2018-01-23T06:12:19.361Z,0.00
2018-01-23T06:13:19.304Z,0.00
2018-01-23T06:14:19.261Z,0.00
2018-01-23T06:15:19.222Z,0.00
2018-01-23T06:16:19.187Z,0.00
2018-01-23T06:17:19.148Z,0.00
2018-01-23T06:18:19.116Z,0.00
2018-01-23T06:19:19.074Z,0.00
2018-01-23T06:20:19.034Z,0.00
2018-01-23T06:21:18.995Z,0.00
2018-01-23T06:22:18.952Z,0.00
2018-01-23T06:23:18.914Z,0.00
2018-01-23T06:24:18.878Z,0.00
2018-01-23T06:25:18.838Z,0.00
2018-01-23T06:26:18.800Z,0.00
2018-01-23T06:27:18.762Z,0.00
2018-01-23T06:28:18.721Z,0.00
2018-01-23T06:29:18.684Z,0.00
2018-01-23T06:30:18.647Z,0.00
2018-01-23T06:31:18.607Z,0.00
2018-01-23T06:32:18.571Z,0.00
2018-01-23T06:33:18.532Z,0.00
2018-01-23T06:34:18.492Z,0.00
2018-01-23T06:35:18.457Z,0.00
2018-01-23T06:36:18.418Z,0.00
2018-01-23T06:37:18.379Z,0.00
2018-01-23T06:38:18.340Z,0.00
2018-01-23T06:39:18.304Z,0.00
2018-01-23T06:40:18.263Z,0.00
2018-01-23T06:41:18.227Z,0.00
2018-01-23T06:42:18.186Z,0.00
2018-01-23T06:43:18.149Z,0.00
2018-01-23T06:44:18.110Z,0.00
2018-01-23T06:45:18.072Z,0.00
2018-01-23T06:46:18.033Z,0.00
2018-01-23T06:47:17.994Z,0.00
2018-01-23T06:48:17.961Z,0.00
2018-01-23T06:49:17.921Z,0.00
2018-01-23T06:50:17.880Z,0.00
2018-01-23T06:51:17.841Z,0.00
2018-01-23T06:52:17.805Z,0.00
2018-01-23T06:53:17.767Z,0.00
2018-01-23T06:54:17.727Z,0.00
2018-01-23T06:55:17.688Z,4.00
2018-01-23T06:56:17.650Z,4.00
2018-01-23T06:57:17.611Z,0.00
2018-01-23T06:58:17.574Z,0.00
2018-01-23T06:59:17.536Z,0.00
2018-01-23T07:00:17.497Z,4.00
2018-01-23T07:01:17.457Z,4.00
2018-01-23T07:02:17.419Z,4.00
2018-01-23T07:03:17.383Z,4.00
2018-01-23T07:04:17.343Z,4.00
2018-01-23T07:05:17.305Z,4.00
2018-01-23T07:06:17.267Z,4.00
2018-01-23T07:07:17.228Z,8.00
2018-01-23T07:08:17.189Z,4.00
2018-01-23T07:09:17.149Z,4.00
2018-01-23T07:10:17.111Z,8.00
2018-01-23T07:11:17.077Z,8.00
2018-01-23T07:12:17.036Z,8.00
2018-01-23T07:13:16.996Z,8.00
2018-01-23T07:14:16.959Z,12.00
2018-01-23T07:15:16.918Z,8.00
2018-01-23T07:16:16.879Z,12.00
2018-01-23T07:17:16.842Z,12.00
2018-01-23T07:18:16.801Z,12.00
2018-01-23T07:19:16.762Z,12.00
2018-01-23T07:20:16.725Z,16.00
2018-01-23T07:21:16.687Z,16.00
2018-01-23T07:22:16.647Z,20.00
2018-01-23T07:23:16.607Z,20.00
2018-01-23T07:24:16.568Z,20.00
2018-01-23T07:25:16.530Z,24.00
2018-01-23T07:26:16.492Z,28.00
2018-01-23T07:27:16.452Z,32.00
2018-01-23T07:28:16.420Z,28.00
2018-01-23T07:29:16.373Z,32.00
2018-01-23T07:30:16.332Z,36.00
2018-01-23T07:31:16.296Z,40.00
2018-01-23T07:32:16.258Z,40.00
2018-01-23T07:33:16.218Z,44.00
2018-01-23T07:34:16.178Z,48.00
2018-01-23T07:35:16.140Z,52.00
2018-01-23T07:36:16.107Z,56.00
2018-01-23T07:37:16.065Z,60.00
2018-01-23T07:38:16.022Z,64.00
2018-01-23T07:39:15.987Z,68.00
2018-01-23T07:40:15.948Z,72.00
2018-01-23T07:41:15.907Z,76.00
2018-01-23T07:42:15.870Z,84.00
2018-01-23T07:43:15.834Z,84.00
2018-01-23T07:44:15.793Z,84.00
2018-01-23T07:45:15.754Z,84.00
2018-01-23T07:46:15.715Z,92.00
2018-01-23T07:47:15.676Z,96.00
2018-01-23T07:48:15.635Z,100.00
2018-01-23T07:49:15.597Z,108.00
2018-01-23T07:50:15.560Z,116.00
2018-01-23T07:51:15.521Z,124.00
2018-01-23T07:52:15.484Z,128.00
2018-01-23T07:53:15.444Z,140.00
2018-01-23T07:54:15.406Z,144.00
2018-01-23T07:55:15.363Z,148.00
2018-01-23T07:56:15.326Z,156.00
2018-01-23T07:57:15.292Z,164.00
2018-01-23T07:58:15.247Z,176.00
2018-01-23T07:59:15.207Z,192.00
2018-01-23T08:00:15.167Z,216.00
2018-01-23T08:01:15.134Z,236.00
2018-01-23T08:02:15.096Z,252.00
2018-01-23T08:03:15.056Z,256.00
2018-01-23T08:04:15.016Z,276.00
2018-01-23T08:05:14.979Z,288.00
2018-01-23T08:06:14.944Z,288.00
2018-01-23T08:07:14.901Z,284.00
2018-01-23T08:08:14.863Z,280.00
2018-01-23T08:09:14.823Z,268.00
2018-01-23T08:10:14.783Z,260.00
2018-01-23T08:11:14.746Z,252.00
2018-01-23T08:12:14.712Z,244.00
2018-01-23T08:13:14.668Z,236.00
2018-01-23T08:14:14.631Z,236.00
2018-01-23T08:15:14.591Z,240.00
2018-01-23T08:16:14.552Z,248.00
2018-01-23T08:17:14.518Z,268.00
2018-01-23T08:18:14.476Z,276.00
2018-01-23T08:19:14.437Z,292.00
2018-01-23T08:20:14.398Z,304.00
2018-01-23T08:21:14.360Z,308.00
2018-01-23T08:22:14.322Z,308.00
2018-01-23T08:23:14.283Z,316.00
2018-01-23T08:24:14.243Z,276.00
2018-01-23T08:25:14.205Z,272.00
2018-01-23T08:26:14.166Z,248.00
2018-01-23T08:27:14.126Z,220.00
2018-01-23T08:28:14.094Z,212.00
2018-01-23T08:29:14.047Z,216.00
2018-01-23T08:30:14.016Z,212.00
2018-01-23T08:31:13.985Z,212.00
2018-01-23T08:32:13.936Z,224.00
2018-01-23T08:33:13.895Z,244.00
2018-01-23T08:34:13.858Z,244.00
2018-01-23T08:35:13.820Z,248.00
2018-01-23T08:36:13.781Z,272.00
2018-01-23T08:37:13.743Z,288.00
2018-01-23T08:38:13.704Z,296.00
2018-01-23T08:39:13.664Z,300.00
2018-01-23T08:40:13.628Z,284.00
2018-01-23T08:41:13.588Z,256.00
2018-01-23T08:42:13.571Z,260.00
2018-01-23T08:43:13.511Z,264.00
2018-01-23T08:44:13.477Z,272.00
2018-01-23T08:45:13.438Z,272.00
2018-01-23T08:46:13.398Z,280.00
2018-01-23T08:47:13.359Z,284.00
2018-01-23T08:48:13.320Z,280.00
2018-01-23T08:49:13.284Z,284.00
2018-01-23T08:50:13.244Z,284.00
2018-01-23T08:51:13.206Z,296.00
2018-01-23T08:52:13.169Z,312.00
2018-01-23T08:53:13.130Z,320.00
2018-01-23T08:54:13.094Z,324.00
2018-01-23T08:55:13.055Z,316.00
2018-01-23T08:56:13.019Z,336.00
2018-01-23T08:57:12.983Z,348.00
2018-01-23T08:58:12.940Z,348.00
2018-01-23T08:59:12.902Z,364.00
2018-01-23T09:00:12.866Z,376.00
2018-01-23T09:01:12.829Z,388.00
2018-01-23T09:02:12.790Z,404.00
2018-01-23T09:03:12.756Z,412.00
2018-01-23T09:04:12.716Z,420.00
2018-01-23T09:05:12.693Z,436.00
2018-01-23T09:06:12.639Z,420.00
2018-01-23T09:07:12.602Z,396.00
2018-01-23T09:08:12.563Z,424.00
2018-01-23T09:09:12.524Z,428.00
2018-01-23T09:10:12.488Z,432.00
2018-01-23T09:11:12.451Z,444.00
2018-01-23T09:12:12.439Z,440.00
2018-01-23T09:13:12.374Z,432.00
2018-01-23T09:14:12.336Z,428.00
2018-01-23T09:15:12.296Z,424.00
2018-01-23T09:16:12.260Z,444.00
2018-01-23T09:17:12.223Z,460.00
2018-01-23T09:18:12.184Z,452.00
2018-01-23T09:19:12.145Z,440.00
2018-01-23T09:20:12.107Z,496.00
2018-01-23T09:21:12.070Z,520.00
2018-01-23T09:22:12.045Z,528.00
2018-01-23T09:23:11.993Z,520.00
2018-01-23T09:24:11.957Z,520.00
2018-01-23T09:25:11.918Z,512.00
2018-01-23T09:26:11.875Z,552.00
2018-01-23T09:27:11.840Z,584.00
2018-01-23T09:28:11.802Z,628.00
2018-01-23T09:29:11.765Z,676.00
2018-01-23T09:30:11.725Z,736.00
2018-01-23T09:31:11.688Z,772.00
2018-01-23T09:32:11.652Z,776.00
2018-01-23T09:33:11.611Z,788.00
2018-01-23T09:34:11.574Z,796.00
2018-01-23T09:35:11.533Z,816.00
2018-01-23T09:36:11.496Z,840.00
2018-01-23T09:37:11.455Z,848.00
2018-01-23T09:38:11.417Z,868.00
2018-01-23T09:39:11.382Z,908.00
2018-01-23T09:40:11.342Z,960.00
2018-01-23T09:41:11.304Z,1032.00
2018-01-23T09:42:11.266Z,1092.00
2018-01-23T09:43:11.227Z,1144.00
2018-01-23T09:44:11.188Z,1312.00
2018-01-23T09:45:11.152Z,1376.00
2018-01-23T09:46:11.113Z,1368.00
2018-01-23T09:47:11.074Z,1448.00
2018-01-23T09:48:11.038Z,1536.00
2018-01-23T09:49:11.001Z,1588.00
2018-01-23T09:50:10.956Z,1636.00
2018-01-23T09:51:10.923Z,1568.00
2018-01-23T09:52:10.883Z,1524.00
2018-01-23T09:53:10.846Z,1492.00
2018-01-23T09:54:10.806Z,1464.00
2018-01-23T09:55:10.769Z,1480.00
2018-01-23T09:56:10.735Z,1460.00
2018-01-23T09:57:10.695Z,1368.00
2018-01-23T09:58:10.655Z,1440.00
2018-01-23T09:59:10.620Z,1468.00
2018-01-23T10:00:10.582Z,1328.00
2018-01-23T10:01:10.545Z,1184.00
2018-01-23T10:02:10.512Z,1080.00
2018-01-23T10:03:10.464Z,1024.00
2018-01-23T10:04:10.432Z,936.00
2018-01-23T10:05:10.394Z,848.00
2018-01-23T10:06:10.355Z,736.00
2018-01-23T10:07:10.326Z,696.00
2018-01-23T10:08:10.281Z,700.00
2018-01-23T10:09:10.245Z,708.00
2018-01-23T10:10:10.218Z,684.00
2018-01-23T10:11:10.166Z,648.00
2018-01-23T10:12:10.130Z,636.00
2018-01-23T10:13:10.116Z,608.00
2018-01-23T10:14:10.053Z,572.00
2018-01-23T10:15:10.018Z,580.00
2018-01-23T10:16:09.984Z,608.00
2018-01-23T10:17:09.943Z,612.00
2018-01-23T10:18:09.904Z,608.00
2018-01-23T10:19:09.866Z,660.00
2018-01-23T10:20:09.828Z,768.00
2018-01-23T10:21:09.792Z,836.00
2018-01-23T10:22:09.753Z,840.00
2018-01-23T10:23:09.714Z,808.00
2018-01-23T10:24:09.679Z,848.00
2018-01-23T10:25:09.642Z,896.00
2018-01-23T10:26:09.601Z,964.00
2018-01-23T10:27:09.572Z,1012.00
2018-01-23T10:28:09.527Z,1056.00
2018-01-23T10:29:09.491Z,972.00
2018-01-23T10:30:09.452Z,944.00
2018-01-23T10:31:09.411Z,988.00
2018-01-23T10:32:09.376Z,1072.00
2018-01-23T10:33:09.340Z,1128.00
2018-01-23T10:34:09.303Z,1156.00
2018-01-23T10:35:09.262Z,1240.00
2018-01-23T10:36:09.232Z,1324.00
2018-01-23T10:37:09.188Z,1308.00
2018-01-23T10:38:09.155Z,1220.00
2018-01-23T10:39:09.112Z,1192.00
2018-01-23T10:40:09.076Z,1236.00
2018-01-23T10:41:09.037Z,1304.00
2018-01-23T10:42:08.999Z,1416.00
2018-01-23T10:43:08.962Z,1504.00
2018-01-23T10:44:08.927Z,1416.00
2018-01-23T10:45:08.889Z,1344.00
2018-01-23T10:46:08.851Z,1252.00
2018-01-23T10:47:08.812Z,1156.00
2018-01-23T10:48:08.778Z,1076.00
2018-01-23T10:49:08.742Z,1064.00
2018-01-23T10:50:08.702Z,1084.00
2018-01-23T10:51:08.665Z,1052.00
2018-01-23T10:52:08.628Z,1032.00
2018-01-23T10:53:08.591Z,988.00
2018-01-23T10:54:08.552Z,968.00
2018-01-23T10:55:08.512Z,964.00
2018-01-23T10:56:08.480Z,1028.00
2018-01-23T10:57:08.441Z,1096.00
2018-01-23T10:58:08.404Z,1372.00
2018-01-23T10:59:08.368Z,1600.00
2018-01-23T11:00:08.328Z,1644.00
2018-01-23T11:01:08.298Z,1664.00
2018-01-23T11:02:08.254Z,1636.00
2018-01-23T11:03:08.215Z,1508.00
2018-01-23T11:04:08.181Z,1464.00
2018-01-23T11:05:08.144Z,1448.00
2018-01-23T11:06:08.105Z,1424.00
2018-01-23T11:07:08.069Z,1376.00
2018-01-23T11:08:08.033Z,1352.00
2018-01-23T11:09:07.994Z,1412.00
2018-01-23T11:10:07.954Z,1504.00
2018-01-23T11:11:07.920Z,1548.00
2018-01-23T11:12:07.917Z,1596.00
2018-01-23T11:13:07.848Z,1636.00
2018-01-23T11:14:07.809Z,1608.00
2018-01-23T11:15:07.771Z,1496.00
2018-01-23T11:16:07.737Z,1432.00
2018-01-23T11:17:07.698Z,1444.00
2018-01-23T11:18:07.659Z,1532.00
2018-01-23T11:19:07.630Z,1544.00
2018-01-23T11:20:07.587Z,1516.00
2018-01-23T11:21:07.551Z,1528.00
2018-01-23T11:22:07.514Z,1544.00
2018-01-23T11:23:07.479Z,1508.00
2018-01-23T11:24:07.441Z,1616.00
2018-01-23T11:25:07.402Z,1664.00
2018-01-23T11:26:07.366Z,1712.00
2018-01-23T11:27:07.330Z,1680.00
2018-01-23T11:28:07.294Z,1680.00
2018-01-23T11:29:07.258Z,1696.00
2018-01-23T11:30:07.221Z,1656.00
2018-01-23T11:31:07.184Z,1652.00
2018-01-23T11:32:07.147Z,1628.00
2018-01-23T11:33:07.112Z,1688.00
2018-01-23T11:34:07.071Z,1712.00
2018-01-23T11:35:07.036Z,1716.00
2018-01-23T11:36:07.000Z,1700.00
2018-01-23T11:37:06.964Z,1632.00
2018-01-23T11:38:06.928Z,1592.00
2018-01-23T11:39:06.888Z,1532.00
2018-01-23T11:40:06.848Z,1516.00
2018-01-23T11:41:06.818Z,1524.00
2018-01-23T11:42:06.780Z,1484.00
2018-01-23T11:43:06.741Z,1592.00
2018-01-23T11:44:06.706Z,1592.00
2018-01-23T11:45:06.670Z,1480.00
2018-01-23T11:46:06.632Z,1684.00
2018-01-23T11:47:06.595Z,1896.00
2018-01-23T11:48:06.671Z,2048.00
2018-01-23T11:49:06.529Z,2228.00
2018-01-23T11:50:06.486Z,2796.00
2018-01-23T11:51:06.450Z,2768.00
2018-01-23T11:52:06.412Z,2468.00
2018-01-23T11:53:06.378Z,2368.00
2018-01-23T11:54:06.339Z,2096.00
2018-01-23T11:55:06.299Z,1944.00
2018-01-23T11:56:06.267Z,1692.00
2018-01-23T11:57:06.230Z,1452.00
2018-01-23T11:58:06.192Z,1236.00
2018-01-23T11:59:06.161Z,1064.00
2018-01-23T12:00:06.121Z,924.00
2018-01-23T12:01:06.085Z,904.00
2018-01-23T12:02:06.048Z,948.00
2018-01-23T12:03:06.011Z,992.00
2018-01-23T12:04:05.989Z,1048.00
2018-01-23T12:05:05.939Z,1132.00
2018-01-23T12:06:05.904Z,1260.00
2018-01-23T12:07:05.868Z,1524.00
2018-01-23T12:08:05.830Z,1572.00
2018-01-23T12:09:05.795Z,1320.00
2018-01-23T12:10:05.756Z,1192.00
2018-01-23T12:11:05.720Z,1060.00
2018-01-23T12:12:05.679Z,1020.00
2018-01-23T12:13:05.644Z,1056.00
2018-01-23T12:14:05.611Z,1096.00
2018-01-23T12:15:05.572Z,1220.00
2018-01-23T12:16:05.534Z,1708.00
2018-01-23T12:17:05.502Z,1764.00
2018-01-23T12:18:05.462Z,1832.00
2018-01-23T12:19:05.455Z,2036.00
2018-01-23T12:20:05.389Z,1964.00
2018-01-23T12:21:05.353Z,1772.00
2018-01-23T12:22:05.312Z,1536.00
2018-01-23T12:23:05.278Z,1436.00
2018-01-23T12:24:05.245Z,1356.00
2018-01-23T12:25:05.207Z,1620.00
2018-01-23T12:26:05.170Z,7668.00
2018-01-23T12:27:05.133Z,5660.00
2018-01-23T12:28:05.097Z,3232.00
2018-01-23T12:29:05.059Z,2148.00
2018-01-23T12:30:05.025Z,2204.00
2018-01-23T12:31:05.003Z,1988.00
2018-01-23T12:32:04.952Z,2020.00
2018-01-23T12:33:04.916Z,1948.00
2018-01-23T12:34:04.883Z,1812.00
2018-01-23T12:35:04.840Z,1640.00
2018-01-23T12:36:04.806Z,1656.00
2018-01-23T12:37:04.769Z,1868.00
2018-01-23T12:38:04.733Z,1980.00
2018-01-23T12:39:04.697Z,1696.00
2018-01-23T12:40:04.660Z,2136.00
2018-01-23T12:41:04.627Z,3324.00
2018-01-23T12:42:04.589Z,2224.00
2018-01-23T12:43:04.551Z,11496.00
2018-01-23T12:44:04.520Z,1916.00
2018-01-23T12:45:04.481Z,2040.00
2018-01-23T12:46:04.442Z,3108.00
2018-01-23T12:47:04.407Z,5084.00
2018-01-23T12:48:04.370Z,5088.00
2018-01-23T12:49:04.342Z,1724.00
2018-01-23T12:50:04.300Z,1868.00
2018-01-23T12:51:04.263Z,2144.00